createdAt,value
2022-11-08T00:00:38.878Z,10.93
2022-11-08T00:01:44.978Z,10.99
2022-11-08T00:02:46.938Z,10.88
2022-11-08T00:03:48.746Z,10.95
2022-11-08T00:04:50.556Z,10.95
2022-11-08T00:06:13.806Z,10.91
2022-11-08T00:07:34.685Z,10.94
2022-11-08T00:08:55.068Z,10.90
2022-11-08T00:10:15.390Z,10.87
2022-11-08T00:11:35.624Z,10.82
2022-11-08T00:12:56.704Z,10.73
2022-11-08T00:13:59.855Z,10.95
2022-11-08T00:15:02.710Z,10.81
2022-11-08T00:16:04.991Z,10.74
2022-11-08T00:17:06.996Z,10.85
2022-11-08T00:18:08.602Z,10.80
2022-11-08T00:19:11.570Z,10.81
2022-11-08T00:20:13.209Z,10.67
2022-11-08T00:21:15.257Z,10.77
2022-11-08T00:22:17.603Z,10.73
2022-11-08T00:23:20.296Z,10.66
2022-11-08T00:24:21.857Z,10.66
2022-11-08T00:25:24.004Z,10.63
2022-11-08T00:26:25.568Z,10.57
2022-11-08T00:27:28.031Z,10.71
2022-11-08T00:28:29.656Z,10.83
2022-11-08T00:29:31.305Z,10.85
2022-11-08T00:30:32.932Z,10.94
2022-11-08T00:31:35.898Z,10.90
2022-11-08T00:32:39.526Z,10.99
2022-11-08T00:33:41.594Z,11.02
2022-11-08T00:34:43.740Z,10.96
2022-11-08T00:35:45.550Z,10.95
2022-11-08T00:36:47.308Z,11.00
2022-11-08T00:37:49.142Z,10.99
2022-11-08T00:38:54.090Z,10.98
2022-11-08T00:39:55.927Z,10.97
2022-11-08T00:40:57.604Z,10.95
2022-11-08T00:41:59.234Z,10.90
2022-11-08T00:43:00.895Z,10.88
2022-11-08T00:44:02.547Z,10.85
2022-11-08T00:45:04.603Z,10.68
2022-11-08T00:46:06.434Z,10.81
2022-11-08T00:47:08.195Z,10.79
2022-11-08T00:48:10.030Z,10.81
2022-11-08T00:49:12.338Z,10.74
2022-11-08T00:50:14.053Z,10.74
2022-11-08T00:51:15.723Z,10.75
2022-11-08T00:52:17.338Z,10.76
2022-11-08T00:53:18.929Z,10.64
2022-11-08T00:54:21.455Z,10.58
2022-11-08T00:55:23.168Z,10.61
2022-11-08T00:56:25.322Z,10.63
2022-11-08T00:57:47.209Z,10.61
2022-11-08T00:58:52.065Z,10.39
2022-11-08T00:59:53.671Z,10.48
2022-11-08T01:00:56.416Z,10.38
2022-11-08T01:01:58.229Z,10.30
2022-11-08T01:03:18.529Z,10.29
2022-11-08T01:04:20.793Z,10.34
2022-11-08T01:05:22.554Z,10.29
2022-11-08T01:06:26.098Z,10.31
2022-11-08T01:07:28.036Z,10.30
2022-11-08T01:08:31.170Z,10.32
2022-11-08T01:09:32.822Z,10.30
2022-11-08T01:10:36.360Z,10.28
2022-11-08T01:11:39.060Z,10.20
2022-11-08T01:12:40.843Z,10.20
2022-11-08T01:13:42.940Z,10.19
2022-11-08T01:14:46.131Z,9.90
2022-11-08T01:15:47.754Z,10.09
2022-11-08T01:16:49.647Z,10.11
2022-11-08T01:17:51.261Z,9.92
2022-11-08T01:18:55.177Z,9.98
2022-11-08T01:19:56.917Z,10.06
2022-11-08T01:20:58.876Z,10.02
2022-11-08T01:22:01.051Z,9.97
2022-11-08T01:23:03.805Z,9.97
2022-11-08T01:24:06.470Z,9.97
2022-11-08T01:25:08.585Z,10.03
2022-11-08T01:26:14.656Z,9.99
2022-11-08T01:27:17.853Z,9.95
2022-11-08T01:28:19.791Z,9.97
2022-11-08T01:29:21.976Z,9.97
2022-11-08T01:30:23.594Z,10.06
2022-11-08T01:31:28.040Z,10.08
2022-11-08T01:32:31.102Z,10.09
2022-11-08T01:33:33.898Z,10.02
2022-11-08T01:34:36.003Z,10.11
2022-11-08T01:35:37.859Z,10.14
2022-11-08T01:36:41.878Z,10.19
2022-11-08T01:37:45.623Z,10.12
2022-11-08T01:38:48.139Z,10.12
2022-11-08T01:39:49.849Z,10.27
2022-11-08T01:40:52.463Z,10.35
2022-11-08T01:41:54.827Z,10.48
2022-11-08T01:42:57.366Z,10.50
2022-11-08T01:44:00.557Z,10.55
2022-11-08T01:45:04.368Z,10.52
2022-11-08T01:46:31.182Z,10.68
2022-11-08T01:47:32.923Z,10.67
2022-11-08T01:48:34.783Z,10.67
2022-11-08T01:49:43.911Z,10.68
2022-11-08T01:50:45.864Z,10.84
2022-11-08T01:51:55.994Z,10.93
2022-11-08T01:52:58.980Z,10.93
2022-11-08T01:54:05.648Z,10.93
2022-11-08T01:55:10.549Z,10.94
2022-11-08T01:56:16.142Z,11.00
2022-11-08T01:57:29.209Z,10.97
2022-11-08T01:58:38.060Z,11.01
2022-11-08T01:59:42.747Z,10.94
2022-11-08T02:01:03.544Z,11.03
2022-11-08T02:02:11.290Z,11.02
2022-11-08T02:03:34.578Z,11.04
2022-11-08T02:04:38.634Z,11.02
2022-11-08T02:05:44.352Z,10.90
2022-11-08T02:06:46.606Z,10.88
2022-11-08T02:07:50.483Z,10.86
2022-11-08T02:08:52.780Z,10.81
2022-11-08T02:09:56.704Z,10.66
2022-11-08T02:10:58.889Z,10.63
2022-11-08T02:12:00.849Z,10.47
2022-11-08T02:13:05.146Z,10.54
2022-11-08T02:14:08.519Z,10.45
2022-11-08T02:15:11.906Z,10.44
2022-11-08T02:16:16.747Z,10.39
2022-11-08T02:17:18.911Z,10.37
2022-11-08T02:18:24.478Z,10.38
2022-11-08T02:19:46.578Z,10.51
2022-11-08T02:21:03.039Z,10.59
2022-11-08T02:22:10.653Z,10.60
2022-11-08T02:23:22.140Z,10.65
2022-11-08T02:24:24.373Z,10.66
2022-11-08T02:25:28.803Z,10.61
2022-11-08T02:26:36.079Z,10.77
2022-11-08T02:27:37.597Z,10.89
2022-11-08T02:28:42.056Z,10.88
2022-11-08T02:29:45.206Z,10.80
2022-11-08T02:30:47.258Z,11.00
2022-11-08T02:31:50.408Z,11.14
2022-11-08T02:32:52.266Z,11.28
2022-11-08T02:33:54.037Z,11.21
2022-11-08T02:34:59.279Z,11.36
2022-11-08T02:36:02.123Z,11.23
2022-11-08T02:37:06.059Z,11.26
2022-11-08T02:38:08.758Z,11.18
2022-11-08T02:39:11.041Z,11.18
2022-11-08T02:40:12.885Z,11.13
2022-11-08T02:41:15.228Z,11.12
2022-11-08T02:42:18.845Z,11.16
2022-11-08T02:43:21.692Z,11.26
2022-11-08T02:44:23.197Z,11.25
2022-11-08T02:45:24.879Z,11.26
2022-11-08T02:46:26.612Z,11.12
2022-11-08T02:47:29.810Z,11.08
2022-11-08T02:48:31.625Z,11.22
2022-11-08T02:49:33.439Z,11.29
2022-11-08T02:50:36.012Z,11.23
2022-11-08T02:51:37.747Z,11.17
2022-11-08T02:52:39.529Z,11.31
2022-11-08T02:53:41.587Z,11.17
2022-11-08T02:54:43.143Z,11.14
2022-11-08T02:55:46.411Z,11.14
2022-11-08T02:56:48.121Z,11.10
2022-11-08T02:57:50.196Z,11.07
2022-11-08T02:58:52.389Z,11.06
2022-11-08T02:59:55.561Z,11.04
2022-11-08T03:00:57.413Z,11.12
2022-11-08T03:02:00.155Z,11.18
2022-11-08T03:03:02.642Z,11.18
2022-11-08T03:04:05.189Z,11.25
2022-11-08T03:05:07.219Z,11.24
2022-11-08T03:06:09.212Z,11.25
2022-11-08T03:07:11.229Z,11.18
2022-11-08T03:08:13.578Z,11.09
2022-11-08T03:09:15.143Z,11.03
2022-11-08T03:10:18.414Z,11.02
2022-11-08T03:11:20.273Z,10.95
2022-11-08T03:12:22.249Z,10.89
2022-11-08T03:13:23.823Z,10.91
2022-11-08T03:14:25.919Z,10.74
2022-11-08T03:15:29.529Z,10.57
2022-11-08T03:16:32.520Z,10.41
2022-11-08T03:17:34.652Z,10.30
2022-11-08T03:18:36.726Z,10.12
2022-11-08T03:19:39.015Z,9.88
2022-11-08T03:20:40.925Z,9.79
2022-11-08T03:21:43.046Z,9.65
2022-11-08T03:22:46.261Z,9.56
2022-11-08T03:23:48.005Z,9.55
2022-11-08T03:24:49.674Z,9.50
2022-11-08T03:25:51.299Z,9.48
2022-11-08T03:26:53.601Z,9.31
2022-11-08T03:27:55.555Z,9.21
2022-11-08T03:28:57.353Z,9.03
2022-11-08T03:29:59.010Z,8.92
2022-11-08T03:31:00.958Z,8.87
2022-11-08T03:32:02.604Z,8.66
2022-11-08T03:33:04.437Z,8.59
2022-11-08T03:34:06.064Z,8.51
2022-11-08T03:35:08.805Z,8.43
2022-11-08T03:36:12.944Z,8.31
2022-11-08T03:37:14.716Z,8.22
2022-11-08T03:38:17.406Z,8.31
2022-11-08T03:39:19.209Z,8.26
2022-11-08T03:40:22.101Z,8.21
2022-11-08T03:41:23.892Z,8.02
2022-11-08T03:42:25.504Z,8.00
2022-11-08T03:43:27.447Z,7.91
2022-11-08T03:44:30.410Z,7.84
2022-11-08T03:45:33.707Z,7.45
2022-11-08T03:46:38.099Z,7.49
2022-11-08T03:47:40.921Z,7.53
2022-11-08T03:48:42.752Z,7.49
2022-11-08T03:49:45.527Z,7.48
2022-11-08T03:50:47.425Z,7.32
2022-11-08T03:51:48.960Z,7.34
2022-11-08T03:52:52.933Z,7.36
2022-11-08T03:53:55.987Z,7.29
2022-11-08T03:54:57.842Z,7.31
2022-11-08T03:56:00.957Z,7.22
2022-11-08T03:57:02.987Z,7.25
2022-11-08T03:58:04.511Z,7.20
2022-11-08T03:59:06.143Z,7.18
2022-11-08T04:00:10.291Z,7.12
2022-11-08T04:01:12.070Z,7.01
2022-11-08T04:02:13.912Z,7.04
2022-11-08T04:03:15.682Z,7.02
2022-11-08T04:04:17.361Z,7.02
2022-11-08T04:05:19.232Z,6.94
2022-11-08T04:06:20.870Z,6.93
2022-11-08T04:07:23.015Z,6.90
2022-11-08T04:08:24.715Z,6.86
2022-11-08T04:09:29.105Z,6.80
2022-11-08T04:10:30.963Z,6.79
2022-11-08T04:11:51.677Z,6.64
2022-11-08T04:13:12.193Z,6.73
2022-11-08T04:14:32.421Z,6.62
2022-11-08T04:15:34.041Z,6.61
2022-11-08T04:16:35.743Z,6.52
2022-11-08T04:17:55.635Z,6.54
2022-11-08T04:19:15.999Z,6.46
2022-11-08T04:20:36.391Z,6.48
2022-11-08T04:21:38.613Z,6.38
2022-11-08T04:22:40.108Z,6.36
2022-11-08T04:23:42.129Z,6.31
2022-11-08T04:24:44.787Z,6.35
2022-11-08T04:25:54.081Z,6.34
2022-11-08T04:26:55.812Z,6.38
2022-11-08T04:27:57.646Z,6.33
2022-11-08T04:29:01.627Z,6.36
2022-11-08T04:30:03.726Z,6.29
2022-11-08T04:31:18.253Z,6.29
2022-11-08T04:32:19.799Z,6.34
2022-11-08T04:33:21.652Z,6.32
2022-11-08T04:34:23.404Z,6.21
2022-11-08T04:35:25.961Z,6.20
2022-11-08T04:36:27.513Z,6.28
2022-11-08T04:37:29.376Z,6.34
2022-11-08T04:38:32.307Z,6.41
2022-11-08T04:39:34.077Z,6.33
2022-11-08T04:40:36.076Z,6.38
2022-11-08T04:41:44.046Z,6.25
2022-11-08T04:42:45.766Z,6.32
2022-11-08T04:43:48.202Z,6.15
2022-11-08T04:44:50.278Z,6.28
2022-11-08T04:45:52.232Z,6.28
2022-11-08T04:46:54.368Z,6.30
2022-11-08T04:47:59.254Z,6.16
2022-11-08T04:49:04.085Z,5.95
2022-11-08T04:50:06.405Z,6.02
2022-11-08T04:51:14.341Z,6.34
2022-11-08T04:52:16.223Z,6.34
2022-11-08T04:53:18.145Z,6.22
2022-11-08T04:54:20.375Z,6.40
2022-11-08T04:55:24.264Z,5.98
2022-11-08T04:56:28.141Z,6.28
2022-11-08T04:57:29.832Z,6.39
2022-11-08T04:58:42.115Z,6.45
2022-11-08T04:59:44.750Z,6.17
2022-11-08T05:00:48.746Z,6.36
2022-11-08T05:01:51.319Z,6.47
2022-11-08T05:02:53.816Z,6.53
2022-11-08T05:03:55.712Z,6.50
2022-11-08T05:05:00.191Z,6.56
2022-11-08T05:06:11.715Z,6.58
2022-11-08T05:07:15.047Z,6.50
2022-11-08T05:08:17.249Z,6.31
2022-11-08T05:09:20.366Z,6.53
2022-11-08T05:10:22.155Z,6.53
2022-11-08T05:11:31.754Z,6.21
2022-11-08T05:12:33.330Z,6.33
2022-11-08T05:13:38.266Z,6.55
2022-11-08T05:14:39.765Z,6.58
2022-11-08T05:15:41.395Z,6.65
2022-11-08T05:16:46.083Z,6.68
2022-11-08T05:17:48.202Z,6.48
2022-11-08T05:18:50.652Z,6.65
2022-11-08T05:20:11.914Z,6.59
2022-11-08T05:21:36.170Z,6.62
2022-11-08T05:22:56.947Z,6.30
2022-11-08T05:24:00.363Z,6.50
2022-11-08T05:25:03.876Z,6.54
2022-11-08T05:26:06.464Z,6.48
2022-11-08T05:27:09.918Z,6.44
2022-11-08T05:28:11.572Z,6.55
2022-11-08T05:29:15.346Z,6.20
2022-11-08T05:30:17.168Z,6.51
2022-11-08T05:31:19.321Z,6.45
2022-11-08T05:32:20.978Z,6.52
2022-11-08T05:33:24.558Z,6.57
2022-11-08T05:34:27.433Z,6.58
2022-11-08T05:35:29.367Z,6.43
2022-11-08T05:36:30.871Z,6.42
2022-11-08T05:37:32.979Z,6.52
2022-11-08T05:38:35.061Z,6.20
2022-11-08T05:39:37.167Z,6.41
2022-11-08T05:40:38.893Z,6.47
2022-11-08T05:41:40.971Z,6.46
2022-11-08T05:42:44.277Z,6.11
2022-11-08T05:43:47.938Z,6.46
2022-11-08T05:44:50.824Z,6.47
2022-11-08T05:45:52.591Z,6.43
2022-11-08T05:46:55.329Z,6.43
2022-11-08T05:47:58.552Z,6.44
2022-11-08T05:49:01.399Z,6.50
2022-11-08T05:50:06.618Z,6.11
2022-11-08T05:51:08.519Z,6.63
2022-11-08T05:52:10.489Z,6.73
2022-11-08T05:53:12.540Z,7.07
2022-11-08T05:54:14.672Z,7.24
2022-11-08T05:55:17.595Z,7.38
2022-11-08T05:56:19.393Z,7.57
2022-11-08T05:57:22.535Z,7.96
2022-11-08T05:58:24.173Z,8.03
2022-11-08T05:59:38.446Z,8.03
2022-11-08T06:00:41.331Z,8.70
2022-11-08T06:01:44.286Z,8.76
2022-11-08T06:02:46.321Z,8.86
2022-11-08T06:03:49.517Z,8.80
2022-11-08T06:04:52.555Z,8.79
2022-11-08T06:05:54.903Z,8.89
2022-11-08T06:06:56.587Z,8.52
2022-11-08T06:07:59.025Z,8.28
2022-11-08T06:09:00.707Z,8.83
2022-11-08T06:10:04.117Z,8.90
2022-11-08T06:11:08.255Z,8.96
2022-11-08T06:12:10.035Z,8.64
2022-11-08T06:13:16.462Z,8.93
2022-11-08T06:14:19.327Z,8.97
2022-11-08T06:15:21.546Z,8.69
2022-11-08T06:16:25.699Z,8.95
2022-11-08T06:17:30.266Z,8.72
2022-11-08T06:18:36.260Z,9.10
2022-11-08T06:19:38.005Z,9.41
2022-11-08T06:20:41.247Z,9.45
2022-11-08T06:21:43.240Z,9.45
2022-11-08T06:22:44.913Z,9.48
2022-11-08T06:23:47.285Z,9.32
2022-11-08T06:24:49.463Z,9.43
2022-11-08T06:25:51.338Z,9.33
2022-11-08T06:26:54.240Z,9.34
2022-11-08T06:27:56.186Z,9.30
2022-11-08T06:28:57.858Z,9.04
2022-11-08T06:29:59.705Z,9.29
2022-11-08T06:31:02.778Z,9.32
2022-11-08T06:32:04.747Z,9.23
2022-11-08T06:33:06.799Z,9.28
2022-11-08T06:34:09.202Z,9.23
2022-11-08T06:35:11.954Z,9.29
2022-11-08T06:36:14.022Z,9.35
2022-11-08T06:37:16.494Z,9.13
2022-11-08T06:38:18.584Z,9.33
2022-11-08T06:39:20.525Z,9.27
2022-11-08T06:40:22.614Z,9.40
2022-11-08T06:41:27.465Z,9.31
2022-11-08T06:42:29.714Z,9.34
2022-11-08T06:43:32.313Z,9.24
2022-11-08T06:44:34.397Z,8.91
2022-11-08T06:45:38.630Z,9.12
2022-11-08T06:46:40.569Z,9.04
2022-11-08T06:47:42.264Z,8.86
2022-11-08T06:48:44.254Z,8.93
2022-11-08T06:49:48.046Z,8.88
2022-11-08T06:50:51.102Z,8.86
2022-11-08T06:51:53.202Z,8.74
2022-11-08T06:52:59.829Z,8.77
2022-11-08T06:54:06.823Z,8.70
2022-11-08T06:55:10.416Z,8.58
2022-11-08T06:56:12.778Z,8.30
2022-11-08T06:57:14.682Z,8.71
2022-11-08T06:58:16.381Z,8.70
2022-11-08T06:59:18.334Z,8.71
2022-11-08T07:00:20.519Z,8.77
2022-11-08T07:01:22.229Z,8.72
2022-11-08T07:02:25.825Z,8.83
2022-11-08T07:03:27.546Z,8.67
2022-11-08T07:04:29.874Z,8.85
2022-11-08T07:05:34.479Z,9.11
2022-11-08T07:06:36.656Z,8.86
2022-11-08T07:07:38.744Z,8.97
2022-11-08T07:08:40.844Z,8.97
2022-11-08T07:09:44.162Z,9.14
2022-11-08T07:10:46.363Z,9.27
2022-11-08T07:11:48.321Z,9.37
2022-11-08T07:12:59.314Z,9.44
2022-11-08T07:14:01.049Z,9.26
2022-11-08T07:15:03.900Z,9.54
2022-11-08T07:16:06.866Z,9.47
2022-11-08T07:17:10.644Z,9.54
2022-11-08T07:18:15.039Z,9.71
2022-11-08T07:19:17.057Z,9.51
2022-11-08T07:20:22.288Z,9.50
2022-11-08T07:21:24.089Z,9.71
2022-11-08T07:22:26.156Z,9.56
2022-11-08T07:23:29.058Z,9.67
2022-11-08T07:24:30.629Z,9.81
2022-11-08T07:25:33.375Z,9.85
2022-11-08T07:26:35.068Z,9.83
2022-11-08T07:27:38.141Z,9.72
2022-11-08T07:28:40.305Z,9.71
2022-11-08T07:29:42.220Z,10.08
2022-11-08T07:30:47.459Z,9.67
2022-11-08T07:31:49.216Z,9.91
2022-11-08T07:32:51.491Z,10.24
2022-11-08T07:33:53.224Z,10.75
2022-11-08T07:34:54.866Z,10.81
2022-11-08T07:35:58.076Z,10.75
2022-11-08T07:36:59.967Z,10.68
2022-11-08T07:38:03.066Z,10.57
2022-11-08T07:39:06.829Z,10.55
2022-11-08T07:40:10.273Z,10.48
2022-11-08T07:41:11.947Z,10.33
2022-11-08T07:42:13.515Z,10.56
2022-11-08T07:43:16.576Z,10.34
2022-11-08T07:44:19.278Z,10.22
2022-11-08T07:45:22.081Z,10.08
2022-11-08T07:46:23.765Z,10.35
2022-11-08T07:47:25.555Z,10.34
2022-11-08T07:48:29.117Z,10.39
2022-11-08T07:49:31.879Z,9.80
2022-11-08T07:50:33.969Z,10.04
2022-11-08T07:51:36.796Z,10.22
2022-11-08T07:52:38.503Z,10.21
2022-11-08T07:53:40.206Z,9.98
2022-11-08T07:54:42.137Z,10.27
2022-11-08T07:55:46.145Z,10.24
2022-11-08T07:56:47.889Z,10.16
2022-11-08T07:57:50.100Z,10.23
2022-11-08T07:58:53.281Z,10.04
2022-11-08T07:59:55.026Z,10.26
2022-11-08T08:01:02.429Z,10.36
2022-11-08T08:02:05.393Z,10.44
2022-11-08T08:03:11.942Z,10.54
2022-11-08T08:04:16.411Z,10.11
2022-11-08T08:05:22.204Z,10.71
2022-11-08T08:06:24.501Z,10.78
2022-11-08T08:07:26.105Z,10.58
2022-11-08T08:08:28.357Z,10.65
2022-11-08T08:09:31.408Z,10.89
2022-11-08T08:10:34.855Z,10.85
2022-11-08T08:11:36.646Z,10.82
2022-11-08T08:12:38.655Z,10.81
2022-11-08T08:13:48.836Z,10.66
2022-11-08T08:14:51.140Z,10.65
2022-11-08T08:15:54.013Z,10.83
2022-11-08T08:16:57.713Z,11.06
2022-11-08T08:18:01.739Z,10.96
2022-11-08T08:19:04.081Z,11.09
2022-11-08T08:20:07.403Z,11.12
2022-11-08T08:21:09.443Z,11.26
2022-11-08T08:22:12.113Z,11.28
2022-11-08T08:23:15.315Z,11.34
2022-11-08T08:24:17.457Z,11.61
2022-11-08T08:25:21.231Z,11.67
2022-11-08T08:26:24.489Z,11.50
2022-11-08T08:27:26.483Z,11.62
2022-11-08T08:28:28.045Z,11.69
2022-11-08T08:29:31.033Z,11.43
2022-11-08T08:30:34.548Z,11.15
2022-11-08T08:31:36.504Z,11.30
2022-11-08T08:32:38.891Z,11.25
2022-11-08T08:33:41.617Z,11.25
2022-11-08T08:34:43.979Z,11.23
2022-11-08T08:35:46.729Z,11.32
2022-11-08T08:36:48.446Z,11.19
2022-11-08T08:37:50.577Z,11.23
2022-11-08T08:38:52.389Z,11.49
2022-11-08T08:39:54.006Z,11.61
2022-11-08T08:40:56.523Z,11.82
2022-11-08T08:42:00.523Z,12.06
2022-11-08T08:43:07.049Z,12.39
2022-11-08T08:44:14.404Z,12.12
2022-11-08T08:45:18.339Z,12.60
2022-11-08T08:46:22.304Z,13.12
2022-11-08T08:47:25.001Z,13.15
2022-11-08T08:48:27.079Z,13.48
2022-11-08T08:49:28.817Z,13.60
2022-11-08T08:50:32.398Z,14.16
2022-11-08T08:51:35.546Z,14.32
2022-11-08T08:52:37.162Z,14.37
2022-11-08T08:53:40.600Z,14.37
2022-11-08T08:54:44.370Z,15.01
2022-11-08T08:55:48.060Z,15.45
2022-11-08T08:56:50.048Z,15.85
2022-11-08T08:57:52.003Z,16.34
2022-11-08T09:01:42.054Z,17.69
2022-11-08T09:02:44.671Z,17.07
2022-11-08T09:03:46.376Z,17.24
2022-11-08T09:04:48.114Z,17.16
2022-11-08T09:05:49.942Z,16.68
2022-11-08T09:06:51.637Z,16.81
2022-11-08T09:07:56.391Z,17.43
2022-11-08T09:08:58.187Z,18.20
2022-11-08T09:10:01.450Z,18.06
2022-11-08T09:11:03.284Z,18.64
2022-11-08T09:12:11.692Z,19.21
2022-11-08T09:13:16.441Z,19.65
2022-11-08T09:14:18.383Z,19.51
2022-11-08T09:15:21.417Z,19.13
2022-11-08T09:16:23.008Z,18.22
2022-11-08T09:17:26.456Z,17.71
2022-11-08T09:18:28.413Z,17.93
2022-11-08T09:19:30.246Z,18.55
2022-11-08T09:20:32.096Z,17.94
2022-11-08T09:21:34.275Z,17.12
2022-11-08T09:22:35.808Z,17.16
2022-11-08T09:23:38.214Z,16.71
2022-11-08T09:24:41.599Z,16.35
2022-11-08T09:25:43.178Z,16.80
2022-11-08T09:26:45.002Z,17.60
2022-11-08T09:27:47.604Z,18.23
2022-11-08T09:28:49.471Z,18.70
2022-11-08T09:29:51.198Z,18.81
2022-11-08T09:30:54.391Z,19.44
2022-11-08T09:31:56.093Z,19.94
2022-11-08T09:33:01.202Z,19.46
2022-11-08T09:35:10.979Z,20.22
2022-11-08T09:36:14.071Z,20.92
2022-11-08T09:37:17.115Z,20.75
2022-11-08T09:38:19.182Z,21.60
2022-11-08T09:39:21.110Z,22.35
2022-11-08T09:40:49.099Z,23.30
2022-11-08T09:42:26.906Z,24.03
2022-11-08T09:43:52.987Z,24.98
2022-11-08T09:45:01.065Z,23.98
2022-11-08T09:46:03.210Z,24.71
2022-11-08T09:47:15.807Z,23.91
2022-11-08T09:48:22.715Z,25.18
2022-11-08T09:49:39.006Z,24.32
2022-11-08T09:50:45.680Z,23.41
2022-11-08T09:51:48.926Z,23.49
2022-11-08T09:53:09.880Z,24.40
2022-11-08T09:54:24.224Z,24.84
2022-11-08T09:55:33.961Z,25.51
2022-11-08T09:56:38.245Z,26.64
2022-11-08T09:57:58.566Z,26.13
2022-11-08T09:59:15.519Z,27.06
2022-11-08T10:00:20.733Z,27.12
2022-11-08T10:01:27.211Z,27.84
2022-11-08T10:02:33.710Z,28.64
2022-11-08T10:03:36.948Z,29.02
2022-11-08T10:04:38.912Z,29.49
2022-11-08T10:05:43.904Z,29.25
2022-11-08T10:07:10.647Z,28.20
2022-11-08T10:08:43.177Z,26.84
2022-11-08T10:09:53.932Z,27.23
2022-11-08T10:11:01.957Z,28.33
2022-11-08T10:12:25.363Z,28.87
2022-11-08T10:13:36.706Z,29.56
2022-11-08T10:14:54.621Z,30.33
2022-11-08T10:16:27.833Z,30.68
2022-11-08T10:17:40.992Z,28.43
2022-11-08T10:19:06.156Z,28.61
2022-11-08T10:20:20.847Z,29.54
2022-11-08T10:21:47.710Z,28.84
2022-11-08T10:22:59.698Z,28.11
2022-11-08T10:24:15.143Z,27.33
2022-11-08T10:25:36.786Z,28.21
2022-11-08T10:26:43.081Z,28.91
2022-11-08T10:27:44.711Z,28.83
2022-11-08T10:28:55.242Z,29.90
2022-11-08T10:30:04.689Z,29.54
2022-11-08T10:31:06.973Z,27.72
2022-11-08T10:32:14.929Z,25.53
2022-11-08T10:33:27.617Z,25.72
2022-11-08T10:34:39.103Z,26.24
2022-11-08T10:35:57.753Z,25.00
2022-11-08T10:37:09.339Z,23.99
2022-11-08T10:38:25.211Z,25.04
2022-11-08T10:39:37.234Z,25.94
2022-11-08T10:40:50.236Z,25.71
2022-11-08T10:41:54.421Z,27.13
2022-11-08T10:43:05.500Z,26.46
2022-11-08T10:44:16.025Z,26.83
2022-11-08T10:45:18.122Z,27.69
2022-11-08T10:46:39.993Z,28.77
2022-11-08T10:47:47.193Z,28.56
2022-11-08T10:48:48.832Z,27.83
2022-11-08T10:49:57.300Z,27.71
2022-11-08T10:51:05.642Z,27.68
2022-11-08T10:52:34.541Z,27.44
2022-11-08T10:53:44.507Z,26.79
2022-11-08T10:54:49.469Z,25.73
2022-11-08T10:55:58.256Z,25.08
2022-11-08T10:57:01.009Z,25.83
2022-11-08T10:58:24.033Z,27.01
2022-11-08T10:59:32.759Z,28.26
2022-11-08T11:00:34.800Z,29.19
2022-11-08T11:01:42.411Z,29.53
2022-11-08T11:02:53.020Z,30.39
2022-11-08T11:03:56.033Z,29.34
2022-11-08T11:05:18.225Z,30.02
2022-11-08T11:06:32.639Z,30.59
2022-11-08T11:07:36.734Z,30.74
2022-11-08T11:08:54.952Z,30.51
2022-11-08T11:09:56.972Z,30.60
2022-11-08T11:11:24.552Z,30.07
2022-11-08T11:12:26.153Z,29.90
2022-11-08T11:13:29.786Z,30.21
2022-11-08T11:14:32.637Z,28.89
2022-11-08T11:15:40.687Z,29.04
2022-11-08T11:17:04.314Z,29.53
2022-11-08T11:18:30.021Z,29.88
2022-11-08T11:19:33.301Z,30.93
2022-11-08T11:20:35.655Z,31.27
2022-11-08T11:21:43.341Z,31.15
2022-11-08T11:22:46.505Z,31.46
2022-11-08T11:23:48.447Z,32.40
2022-11-08T11:24:52.981Z,32.95
2022-11-08T11:25:55.296Z,33.48
2022-11-08T11:26:57.195Z,33.68
2022-11-08T11:28:00.556Z,33.44
2022-11-08T11:29:06.913Z,32.99
2022-11-08T11:30:27.283Z,32.96
2022-11-08T11:31:31.063Z,33.56
2022-11-08T11:32:35.129Z,32.94
2022-11-08T11:33:45.490Z,32.68
2022-11-08T11:34:54.551Z,30.94
2022-11-08T11:36:12.272Z,31.87
2022-11-08T11:37:23.709Z,32.08
2022-11-08T11:38:34.144Z,30.80
2022-11-08T11:40:03.498Z,30.00
2022-11-08T11:41:15.059Z,29.33
2022-11-08T11:42:44.659Z,28.68
2022-11-08T11:44:02.615Z,26.97
2022-11-08T11:45:10.876Z,26.31
2022-11-08T11:46:30.713Z,25.58
2022-11-08T11:47:41.242Z,24.80
2022-11-08T11:48:49.217Z,24.64
2022-11-08T11:49:54.940Z,24.03
2022-11-08T11:50:57.988Z,23.55
2022-11-08T11:52:01.064Z,22.84
2022-11-08T11:53:06.798Z,22.66
2022-11-08T11:54:16.998Z,22.26
2022-11-08T11:55:18.956Z,22.42
2022-11-08T11:56:45.787Z,22.72
2022-11-08T11:57:47.470Z,22.53
2022-11-08T11:58:59.057Z,22.14
2022-11-08T12:00:11.964Z,21.55
2022-11-08T12:01:33.099Z,21.20
2022-11-08T12:03:16.002Z,21.45
2022-11-08T12:04:17.742Z,21.44
2022-11-08T12:05:44.193Z,21.48
2022-11-08T12:07:14.161Z,20.90
2022-11-08T12:08:33.780Z,20.78
2022-11-08T12:10:20.963Z,20.23
2022-11-08T12:11:47.046Z,20.05
2022-11-08T12:13:20.459Z,19.87
2022-11-08T12:14:41.463Z,19.65
2022-11-08T12:15:46.215Z,19.79
2022-11-08T12:17:23.703Z,19.83
2022-11-08T12:18:43.264Z,19.80
2022-11-08T12:20:10.832Z,19.30
2022-11-08T12:21:15.078Z,19.38
2022-11-08T12:22:27.380Z,19.50
2022-11-08T12:23:51.225Z,19.51
2022-11-08T12:25:23.490Z,19.86
2022-11-08T12:27:03.133Z,19.97
2022-11-08T12:28:25.585Z,19.59
2022-11-08T12:29:39.742Z,19.61
2022-11-08T12:30:51.783Z,19.57
2022-11-08T12:32:21.282Z,19.74
2022-11-08T12:33:58.016Z,19.65
2022-11-08T12:35:25.997Z,19.52
2022-11-08T12:36:46.509Z,19.50
2022-11-08T12:37:50.891Z,19.71
2022-11-08T12:39:12.649Z,19.26
2022-11-08T12:40:20.344Z,19.76
2022-11-08T12:41:54.034Z,19.85
2022-11-08T12:43:23.015Z,19.81
2022-11-08T12:44:47.900Z,19.93
2022-11-08T12:46:01.282Z,19.51
2022-11-08T12:47:18.184Z,19.21
2022-11-08T12:48:47.451Z,19.04
2022-11-08T12:50:25.299Z,19.16
2022-11-08T12:51:42.136Z,19.18
2022-11-08T12:53:13.715Z,19.24
2022-11-08T12:54:21.361Z,19.20
2022-11-08T12:55:29.160Z,19.29
2022-11-08T12:56:39.422Z,19.12
2022-11-08T12:57:43.198Z,19.39
2022-11-08T12:58:55.330Z,19.39
2022-11-08T13:00:18.170Z,19.35
2022-11-08T13:01:21.677Z,19.23
2022-11-08T13:02:28.836Z,19.29
2022-11-08T13:03:43.316Z,19.41
2022-11-08T13:04:57.769Z,19.46
2022-11-08T13:06:12.801Z,19.31
2022-11-08T13:07:24.617Z,19.52
2022-11-08T13:08:51.269Z,19.29
2022-11-08T13:10:17.207Z,19.37
2022-11-08T13:11:32.301Z,19.00
2022-11-08T13:12:45.482Z,19.21
2022-11-08T13:13:54.438Z,19.37
2022-11-08T13:14:58.958Z,19.40
2022-11-08T13:16:19.016Z,19.41
2022-11-08T13:17:30.982Z,19.48
2022-11-08T13:18:35.977Z,19.45
2022-11-08T13:19:47.218Z,19.44
2022-11-08T13:20:49.220Z,19.20
2022-11-08T13:21:52.209Z,19.24
2022-11-08T13:22:59.631Z,19.40
2022-11-08T13:24:06.623Z,19.45
2022-11-08T13:25:18.506Z,19.46
2022-11-08T13:26:26.789Z,19.21
2022-11-08T13:27:37.403Z,19.45
2022-11-08T13:28:44.544Z,19.54
2022-11-08T13:29:48.937Z,19.45
2022-11-08T13:31:04.126Z,19.63
2022-11-08T13:32:21.198Z,19.94
2022-11-08T13:33:29.387Z,19.91
2022-11-08T13:35:13.422Z,20.00
2022-11-08T13:36:45.993Z,20.02
2022-11-08T13:38:24.808Z,19.92
2022-11-08T13:39:38.280Z,19.91
2022-11-08T13:40:45.103Z,19.83
2022-11-08T13:42:15.229Z,20.04
2022-11-08T13:43:20.258Z,19.85
2022-11-08T13:44:56.380Z,19.87
2022-11-08T13:46:38.213Z,19.54
2022-11-08T13:47:43.395Z,19.69
2022-11-08T13:49:07.359Z,19.43
2022-11-08T13:50:29.024Z,19.45
2022-11-08T13:51:41.160Z,19.45
2022-11-08T13:53:02.510Z,19.53
2022-11-08T13:54:24.164Z,19.67
2022-11-08T13:56:07.550Z,19.77
2022-11-08T13:57:17.716Z,19.82
2022-11-08T13:58:38.391Z,19.85
2022-11-08T13:59:42.856Z,19.96
2022-11-08T14:00:47.980Z,19.88
2022-11-08T14:02:02.301Z,19.86
2022-11-08T14:03:35.150Z,20.32
2022-11-08T14:04:44.814Z,20.22
2022-11-08T14:05:51.237Z,20.41
2022-11-08T14:07:10.444Z,20.20
2022-11-08T14:08:20.984Z,20.35
2022-11-08T14:09:40.748Z,20.53
2022-11-08T14:10:52.207Z,20.49
2022-11-08T14:12:01.730Z,20.60
2022-11-08T14:13:17.809Z,20.71
2022-11-08T14:14:35.241Z,20.76
2022-11-08T14:15:56.427Z,20.54
2022-11-08T14:17:10.473Z,20.60
2022-11-08T14:18:39.616Z,20.27
2022-11-08T14:19:47.773Z,20.39
2022-11-08T14:20:50.284Z,20.28
2022-11-08T14:21:57.938Z,19.95
2022-11-08T14:23:20.622Z,20.25
2022-11-08T14:24:45.440Z,19.75
2022-11-08T14:25:49.181Z,19.61
2022-11-08T14:26:51.031Z,19.71
2022-11-08T14:27:52.657Z,19.73
2022-11-08T14:28:54.479Z,19.27
2022-11-08T14:30:01.344Z,19.17
2022-11-08T14:31:07.260Z,19.35
2022-11-08T14:32:19.841Z,19.21
2022-11-08T14:33:24.304Z,18.91
2022-11-08T14:34:30.116Z,18.71